Time;durP1;ratioP1;P1;durP2;ratioP2;P2;SDS_P1;SDS_P2;PMS_P1;PMS_P2;Temp;Humidity;BMP_temperature;BMP_pressure;BME280_temperature;BME280_humidity;BME280_pressure;Samples;Min_cycle;Max_cycle;Signal;HPM_P1;HPM_P2
2022/10/04 00:02:04;;;;;;;8.40;3.60;;;20.10;56.70;;;;;;5015825;28;20461;-82
2022/10/04 00:04:33;;;;;;;7.83;4.20;;;20.00;57.00;;;;;;5005696;28;20445;-82
2022/10/04 00:07:05;;;;;;;9.90;3.67;;;20.10;56.70;;;;;;5007141;28;20453;-80
2022/10/04 00:09:35;;;;;;;7.23;4.00;;;20.10;56.70;;;;;;5005775;28;20479;-82
2022/10/04 00:12:03;;;;;;;6.80;3.70;;;20.20;56.90;;;;;;4996832;28;20476;-81
2022/10/04 00:14:32;;;;;;;6.13;3.50;;;20.10;56.50;;;;;;5006685;28;20423;-81
2022/10/04 00:17:01;;;;;;;7.30;3.50;;;20.10;57.00;;;;;;5006148;28;20458;-82
2022/10/04 00:19:41;;;;;;;8.40;4.87;;;20.10;56.70;;;;;;5006082;28;20449;-82
2022/10/04 00:22:13;;;;;;;6.43;3.97;;;20.10;57.00;;;;;;5005665;28;20473;-83
2022/10/04 00:25:13;;;;;;;6.23;3.83;;;20.00;57.30;;;;;;5004190;28;20476;-82
2022/10/04 00:28:24;;;;;;;7.50;4.70;;;20.00;57.40;;;;;;4996891;28;20452;-82
2022/10/04 00:31:10;;;;;;;11.87;3.73;;;20.00;57.30;;;;;;4985044;28;20466;-82
2022/10/04 00:33:38;;;;;;;7.87;4.10;;;20.00;57.20;;;;;;4995103;28;20452;-82
2022/10/04 00:36:34;;;;;;;7.60;4.30;;;20.00;57.00;;;;;;5004820;28;20460;-82
2022/10/04 00:39:15;;;;;;;13.77;4.73;;;20.10;57.60;;;;;;5005347;28;20452;-82
2022/10/04 00:41:54;;;;;;;6.70;4.33;;;20.10;56.70;;;;;;5004177;28;20480;-81
2022/10/04 00:44:23;;;;;;;7.80;3.70;;;20.00;57.20;;;;;;4997231;28;20502;-81
2022/10/04 00:46:51;;;;;;;9.30;4.57;;;20.00;57.30;;;;;;5004545;28;20436;-82
2022/10/04 00:49:21;;;;;;;8.10;4.73;;;20.10;57.30;;;;;;5004672;28;20445;-81
2022/10/04 00:51:50;;;;;;;8.23;3.87;;;20.20;57.20;;;;;;5004060;28;20452;-82
2022/10/04 00:54:22;;;;;;;6.13;3.90;;;20.20;56.70;;;;;;5004965;28;20464;-81
2022/10/04 00:56:51;;;;;;;5.07;4.10;;;20.10;57.20;;;;;;5004639;28;20445;-81
2022/10/04 00:59:27;;;;;;;9.30;4.63;;;20.10;56.70;;;;;;4997047;28;20458;-80
2022/10/04 01:01:58;;;;;;;4.47;3.57;;;20.00;57.00;;;;;;4996488;28;20472;-82
2022/10/04 01:04:38;;;;;;;5.50;3.90;;;20.00;57.10;;;;;;5004276;28;20468;-81
2022/10/04 01:07:06;;;;;;;8.97;5.13;;;20.00;57.20;;;;;;5005039;28;20428;-82
2022/10/04 01:09:38;;;;;;;7.37;4.90;;;19.90;57.30;;;;;;5004569;28;20441;-82
2022/10/04 01:12:08;;;;;;;8.50;4.80;;;19.90;57.50;;;;;;5005408;28;20464;-82
2022/10/04 01:14:43;;;;;;;10.03;5.83;;;19.90;57.60;;;;;;5005559;28;20448;-82
2022/10/04 01:17:11;;;;;;;9.47;4.93;;;19.90;57.50;;;;;;4999283;28;20459;-82
2022/10/04 01:19:40;;;;;;;15.20;5.30;;;19.90;57.50;;;;;;4997384;28;20450;-82
2022/10/04 01:22:12;;;;;;;8.57;4.37;;;19.80;57.60;;;;;;5005587;28;20465;-82
2022/10/04 01:24:42;;;;;;;12.90;5.10;;;19.80;57.80;;;;;;5005597;28;20500;-82
2022/10/04 01:27:31;;;;;;;8.13;4.77;;;19.90;57.60;;;;;;5005277;28;20449;-82
2022/10/04 01:30:00;;;;;;;14.40;5.03;;;19.90;57.70;;;;;;5005206;28;20445;-82
2022/10/04 01:32:28;;;;;;;7.33;4.60;;;19.90;57.20;;;;;;5004686;28;20437;-82
2022/10/04 01:34:56;;;;;;;13.10;5.80;;;19.90;57.60;;;;;;5000721;28;20465;-82
2022/10/04 01:37:24;;;;;;;9.10;5.00;;;19.90;57.90;;;;;;5008476;28;20441;-81
2022/10/04 01:39:54;;;;;;;10.23;5.30;;;19.90;58.20;;;;;;5004321;28;20972;-82
2022/10/04 01:42:25;;;;;;;5.43;4.23;;;19.90;57.40;;;;;;5007617;28;20461;-83
2022/10/04 01:44:56;;;;;;;10.03;5.07;;;20.00;57.10;;;;;;5010897;28;20470;-82
2022/10/04 01:47:26;;;;;;;7.67;5.10;;;19.90;57.20;;;;;;5011544;28;20407;-83
2022/10/04 01:49:56;;;;;;;9.17;5.03;;;19.90;57.80;;;;;;5006752;28;20459;-83
2022/10/04 01:52:27;;;;;;;9.57;5.20;;;20.00;57.70;;;;;;5012734;28;20537;-82
2022/10/04 01:55:01;;;;;;;8.13;4.80;;;20.00;57.60;;;;;;5012459;28;20441;-83
2022/10/04 01:57:33;;;;;;;9.63;5.50;;;20.00;57.60;;;;;;5014261;28;20430;-83
2022/10/04 02:00:02;;;;;;;10.33;5.17;;;19.90;57.10;;;;;;5007466;28;20457;-83
2022/10/04 02:02:33;;;;;;;10.40;5.20;;;19.90;57.30;;;;;;5013502;28;20440;-83
2022/10/04 02:05:02;;;;;;;8.00;4.60;;;19.90;57.60;;;;;;5008627;28;20460;-83
2022/10/04 02:07:31;;;;;;;7.73;4.50;;;19.90;57.50;;;;;;5012048;28;20447;-83
2022/10/04 02:10:03;;;;;;;9.53;4.50;;;19.80;57.40;;;;;;5013120;28;20426;-81
2022/10/04 02:12:32;;;;;;;7.73;4.53;;;19.80;57.90;;;;;;5012649;28;20462;-83
2022/10/04 02:15:01;;;;;;;7.87;4.67;;;19.90;57.30;;;;;;5009194;28;20467;-83
2022/10/04 02:17:30;;;;;;;7.73;4.80;;;19.80;57.30;;;;;;5012116;28;20430;-82
2022/10/04 02:20:00;;;;;;;6.60;5.20;;;19.70;57.80;;;;;;5009294;28;20457;-83
2022/10/04 02:22:28;;;;;;;9.40;6.00;;;19.80;57.90;;;;;;5010719;28;20472;-83
2022/10/04 02:24:56;;;;;;;12.30;6.10;;;19.80;57.80;;;;;;5011852;28;20456;-83
2022/10/04 02:27:28;;;;;;;12.07;5.23;;;19.80;57.70;;;;;;5013172;28;20447;-83
2022/10/04 02:30:00;;;;;;;9.50;5.30;;;19.80;58.00;;;;;;5004536;28;20454;-83
2022/10/04 02:35:17;;;;;;;11.60;4.87;;;19.70;57.60;;;;;;5012311;28;20520;-83
2022/10/04 02:37:45;;;;;;;7.67;4.97;;;19.70;58.20;;;;;;5006454;28;20454;-83
2022/10/04 02:40:13;;;;;;;12.30;5.20;;;19.80;57.80;;;;;;5008824;28;20438;-82
2022/10/04 02:42:44;;;;;;;8.87;5.00;;;19.80;57.40;;;;;;5007975;28;20457;-83
2022/10/04 02:45:16;;;;;;;10.63;5.40;;;19.80;58.00;;;;;;5009125;28;20509;-83
2022/10/04 02:47:45;;;;;;;5.43;4.73;;;19.90;57.70;;;;;;5012606;28;20508;-84
2022/10/04 02:50:24;;;;;;;11.50;4.67;;;19.80;57.90;;;;;;5014333;28;20441;-83
2022/10/04 02:52:54;;;;;;;7.87;4.90;;;19.80;57.70;;;;;;5012009;28;20451;-83
2022/10/04 02:55:23;;;;;;;12.23;4.73;;;19.70;57.40;;;;;;5012514;28;20515;-83
2022/10/04 02:57:53;;;;;;;8.67;5.93;;;19.70;57.90;;;;;;5014651;28;20468;-84
2022/10/04 03:00:23;;;;;;;15.47;6.43;;;19.60;57.70;;;;;;5011946;28;20475;-83
2022/10/04 03:03:15;;;;;;;11.97;5.03;;;19.60;58.20;;;;;;5010162;28;20449;-81
2022/10/04 03:05:44;;;;;;;5.30;4.80;;;19.70;58.00;;;;;;5014160;28;20517;-83
2022/10/04 03:08:12;;;;;;;12.53;7.30;;;19.70;58.20;;;;;;5012844;28;20449;-84
2022/10/04 03:10:42;;;;;;;11.37;6.70;;;19.70;57.70;;;;;;5013091;28;20473;-83
2022/10/04 03:13:12;;;;;;;12.07;6.67;;;19.70;58.30;;;;;;5013750;28;20461;-83
2022/10/04 03:15:40;;;;;;;11.60;6.60;;;19.60;58.30;;;;;;5013691;28;20433;-84
2022/10/04 03:18:08;;;;;;;13.43;6.10;;;19.70;58.30;;;;;;5013761;28;20430;-83
2022/10/04 03:20:37;;;;;;;11.67;5.83;;;19.70;58.10;;;;;;5008115;28;20488;-82
2022/10/04 03:23:05;;;;;;;14.40;5.90;;;19.50;58.30;;;;;;5011868;28;20476;-82
2022/10/04 03:25:37;;;;;;;10.03;5.90;;;19.50;58.70;;;;;;5011630;28;20475;-84
2022/10/04 03:28:07;;;;;;;8.50;5.40;;;19.50;58.50;;;;;;5014561;28;20476;-84
2022/10/04 03:30:37;;;;;;;9.00;6.37;;;19.50;58.40;;;;;;5012071;28;20507;-81
2022/10/04 03:33:05;;;;;;;10.20;5.97;;;19.60;58.50;;;;;;5006739;28;20456;-83
2022/10/04 03:35:36;;;;;;;10.37;5.47;;;19.50;58.60;;;;;;5015583;28;20420;-84
2022/10/04 03:38:06;;;;;;;12.57;6.10;;;19.50;58.70;;;;;;5015823;28;20452;-83
2022/10/04 03:40:36;;;;;;;9.03;5.00;;;19.50;58.40;;;;;;5012184;28;20488;-84
2022/10/04 03:43:04;;;;;;;9.43;5.70;;;19.40;58.60;;;;;;5011957;28;20441;-83
2022/10/04 03:45:33;;;;;;;9.10;5.33;;;19.30;59.00;;;;;;5013100;28;20433;-83
2022/10/04 03:48:04;;;;;;;14.93;5.83;;;19.30;59.10;;;;;;5016133;28;20440;-83
2022/10/04 03:50:35;;;;;;;8.83;5.73;;;19.50;58.90;;;;;;5016317;28;20461;-83
2022/10/04 03:53:06;;;;;;;12.43;5.80;;;19.60;58.60;;;;;;5015548;28;20433;-83
2022/10/04 03:55:35;;;;;;;10.87;6.80;;;19.60;58.50;;;;;;5016155;28;20444;-83
2022/10/04 03:58:03;;;;;;;14.30;5.97;;;19.50;58.60;;;;;;5016803;28;20548;-83
2022/10/04 04:00:31;;;;;;;10.80;6.33;;;19.40;58.60;;;;;;5015750;28;20476;-83
2022/10/04 04:03:00;;;;;;;9.97;6.40;;;19.50;59.10;;;;;;5012553;28;20464;-83
2022/10/04 04:05:31;;;;;;;16.43;6.90;;;19.50;58.90;;;;;;5013246;28;20459;-83
2022/10/04 04:08:03;;;;;;;12.10;5.90;;;19.50;58.50;;;;;;5013834;28;20472;-82
2022/10/04 04:10:31;;;;;;;10.83;6.07;;;19.60;59.30;;;;;;5011329;28;20469;-83
2022/10/04 04:13:01;;;;;;;12.83;6.60;;;19.60;58.50;;;;;;5015832;28;20467;-83
2022/10/04 04:15:29;;;;;;;9.63;6.10;;;19.60;58.40;;;;;;5015629;28;20456;-83
2022/10/04 04:17:59;;;;;;;8.63;6.57;;;19.60;58.30;;;;;;5014775;28;20441;-84
2022/10/04 04:20:30;;;;;;;9.77;5.60;;;19.50;59.30;;;;;;5012615;28;20472;-82
2022/10/04 04:23:02;;;;;;;7.57;5.80;;;19.70;58.90;;;;;;5011746;28;20449;-81
2022/10/04 04:25:32;;;;;;;11.73;5.77;;;19.70;58.30;;;;;;5013140;28;20437;-82
2022/10/04 04:28:03;;;;;;;8.57;6.30;;;19.60;58.70;;;;;;5011863;28;20484;-81
2022/10/04 04:30:31;;;;;;;12.40;5.90;;;19.70;58.80;;;;;;5010374;28;20457;-82
2022/10/04 04:33:03;;;;;;;7.13;5.50;;;19.70;58.50;;;;;;5012569;28;20453;-83
2022/10/04 04:35:35;;;;;;;14.50;6.30;;;19.80;58.50;;;;;;5012358;28;20456;-82
2022/10/04 04:38:04;;;;;;;12.63;6.07;;;19.60;58.00;;;;;;5008066;28;20449;-82
2022/10/04 04:40:33;;;;;;;10.60;5.73;;;19.50;59.10;;;;;;5011453;28;20453;-82
2022/10/04 04:43:01;;;;;;;18.80;5.87;;;19.50;59.00;;;;;;4999353;28;20453;-82
2022/10/04 04:45:30;;;;;;;11.23;5.90;;;19.40;58.80;;;;;;5009275;28;20438;-83
2022/10/04 04:48:00;;;;;;;6.37;5.70;;;19.40;59.00;;;;;;5005712;28;20477;-82
2022/10/04 04:50:30;;;;;;;9.63;6.37;;;19.30;59.40;;;;;;5007013;28;20465;-83
2022/10/04 04:53:01;;;;;;;14.00;7.27;;;19.30;59.10;;;;;;5009354;28;20452;-82
2022/10/04 04:55:32;;;;;;;11.70;6.30;;;19.20;59.10;;;;;;5001606;28;20468;-82
2022/10/04 04:58:21;;;;;;;15.30;6.40;;;19.20;59.30;;;;;;5008707;28;20430;-82
2022/10/04 05:00:58;;;;;;;8.70;5.47;;;19.20;59.40;;;;;;5007211;28;20461;-82
2022/10/04 05:03:28;;;;;;;9.53;5.43;;;19.30;59.50;;;;;;5010073;28;20448;-82
2022/10/04 05:05:59;;;;;;;11.20;6.27;;;19.40;59.40;;;;;;5007665;28;20468;-83
2022/10/04 05:08:29;;;;;;;10.90;5.70;;;19.30;58.90;;;;;;5008196;28;20480;-81
2022/10/04 05:11:04;;;;;;;11.40;6.00;;;19.20;59.40;;;;;;5006312;28;20488;-82
2022/10/04 05:13:34;;;;;;;9.87;5.97;;;19.30;59.20;;;;;;5008119;28;20452;-83
2022/10/04 05:16:02;;;;;;;10.13;6.40;;;19.30;59.20;;;;;;5011038;28;20449;-81
2022/10/04 05:18:31;;;;;;;9.67;5.87;;;19.20;59.40;;;;;;5008487;28;20461;-81
2022/10/04 05:21:04;;;;;;;11.20;5.87;;;19.30;59.10;;;;;;5004429;28;20484;-83
2022/10/04 05:23:34;;;;;;;12.57;6.40;;;19.30;59.40;;;;;;5006002;28;20464;-83
2022/10/04 05:26:03;;;;;;;12.53;5.73;;;19.20;58.80;;;;;;5005913;28;20457;-83
2022/10/04 05:28:31;;;;;;;12.30;6.33;;;19.00;59.20;;;;;;5007746;28;20472;-82
2022/10/04 05:31:22;;;;;;;14.03;6.20;;;19.00;59.80;;;;;;5007681;28;20488;-83
2022/10/04 05:33:51;;;;;;;15.60;7.47;;;19.00;59.20;;;;;;5006897;28;20441;-82
2022/10/04 05:36:52;;;;;;;11.20;7.13;;;19.10;59.00;;;;;;5006847;28;20441;-82
2022/10/04 05:39:26;;;;;;;12.07;7.73;;;19.00;59.40;;;;;;4991495;28;20463;-82
2022/10/04 05:41:58;;;;;;;12.30;7.40;;;19.00;60.40;;;;;;5006977;28;20453;-82
2022/10/04 05:44:27;;;;;;;12.47;7.80;;;19.10;59.20;;;;;;4997539;28;20446;-82
2022/10/04 05:46:56;;;;;;;15.23;7.17;;;19.00;59.30;;;;;;5006434;28;20480;-82
2022/10/04 05:49:25;;;;;;;14.20;8.70;;;18.90;59.70;;;;;;5004625;28;20445;-83
2022/10/04 05:51:54;;;;;;;15.67;7.80;;;18.90;59.80;;;;;;5006627;28;20469;-83
2022/10/04 05:54:24;;;;;;;15.37;8.10;;;18.80;60.00;;;;;;5001171;28;20464;-84
2022/10/04 05:57:15;;;;;;;18.27;7.60;;;18.90;59.80;;;;;;5004846;28;20446;-83
2022/10/04 05:59:51;;;;;;;13.77;7.47;;;18.80;60.00;;;;;;4999716;28;20461;-82
2022/10/04 06:02:26;;;;;;;17.40;7.60;;;18.80;59.90;;;;;;5004057;28;20986;-84
2022/10/04 06:05:04;;;;;;;15.73;7.50;;;18.80;60.00;;;;;;5005573;28;20484;-83
2022/10/04 06:07:34;;;;;;;12.70;7.90;;;18.80;60.50;;;;;;5001201;28;20472;-84
2022/10/04 06:10:19;;;;;;;15.33;8.63;;;18.90;59.90;;;;;;5002727;28;20463;-82
2022/10/04 06:12:52;;;;;;;14.67;7.27;;;18.80;59.80;;;;;;4996055;28;20453;-81
2022/10/04 06:15:27;;;;;;;13.97;8.00;;;18.80;59.90;;;;;;5000463;28;20457;-83
2022/10/04 06:18:08;;;;;;;16.10;7.40;;;18.90;59.90;;;;;;5004485;28;20437;-83
2022/10/04 06:21:07;;;;;;;17.17;7.23;;;18.90;60.10;;;;;;5003150;28;20521;-83
2022/10/04 06:23:36;;;;;;;14.70;7.53;;;18.90;59.90;;;;;;5005318;28;20452;-83
2022/10/04 06:26:07;;;;;;;10.30;7.13;;;19.00;60.20;;;;;;5003644;28;20459;-84
2022/10/04 06:28:37;;;;;;;10.73;7.13;;;19.00;59.90;;;;;;5013567;28;20480;-83
2022/10/04 06:31:20;;;;;;;15.40;7.50;;;19.00;60.10;;;;;;5006182;28;20469;-84
2022/10/04 06:33:55;;;;;;;10.83;7.40;;;19.10;59.80;;;;;;4998803;28;20436;-83
2022/10/04 06:36:32;;;;;;;14.63;7.70;;;19.10;59.70;;;;;;5010127;28;20519;-84
2022/10/04 06:39:24;;;;;;;11.03;6.57;;;19.10;59.50;;;;;;5003676;28;20452;-83
2022/10/04 06:42:08;;;;;;;11.53;6.90;;;19.10;59.50;;;;;;5004115;28;20476;-83
2022/10/04 06:44:53;;;;;;;10.33;6.97;;;19.10;59.70;;;;;;5009565;28;20441;-82
2022/10/04 06:47:35;;;;;;;13.07;7.07;;;19.20;60.10;;;;;;5001222;28;20468;-82
2022/10/04 06:50:13;;;;;;;15.33;7.10;;;19.20;59.50;;;;;;5007321;28;20445;-83
2022/10/04 06:52:48;;;;;;;10.73;6.87;;;19.30;59.40;;;;;;5002057;28;20442;-81
2022/10/04 06:55:40;;;;;;;9.47;6.60;;;19.30;59.40;;;;;;4993253;28;20433;-81
2022/10/04 06:58:42;;;;;;;12.50;7.50;;;19.10;59.50;;;;;;5006053;28;20449;-81
2022/10/04 07:01:22;;;;;;;13.20;6.07;;;19.20;59.90;;;;;;4945750;29;20486;-81
2022/10/04 07:03:53;;;;;;;12.17;6.77;;;19.40;59.60;;;;;;4999239;28;20456;-81
2022/10/04 07:06:23;;;;;;;14.30;8.00;;;19.40;59.00;;;;;;5007120;28;20441;-81
2022/10/04 07:08:54;;;;;;;13.53;7.33;;;19.30;59.00;;;;;;5004250;28;20465;-81
2022/10/04 07:11:23;;;;;;;16.20;7.30;;;19.40;59.10;;;;;;5005634;28;20473;-81
2022/10/04 07:13:55;;;;;;;14.33;7.13;;;19.40;59.20;;;;;;5016486;28;20441;-81
2022/10/04 07:16:36;;;;;;;12.00;6.07;;;19.40;58.70;;;;;;5005213;28;20467;-79
2022/10/04 07:19:11;;;;;;;16.50;4.10;;;19.40;63.10;;;;;;4995961;28;20457;-81
2022/10/04 07:21:41;;;;;;;5.27;3.47;;;20.00;63.40;;;;;;4996970;28;20469;-83
2022/10/04 07:24:18;;;;;;;6.30;4.20;;;20.30;63.10;;;;;;5001539;28;20467;-81
2022/10/04 07:26:47;;;;;;;9.50;3.83;;;20.50;63.00;;;;;;4986322;28;20461;-82
2022/10/04 07:29:23;;;;;;;11.03;3.70;;;20.60;62.60;;;;;;5003092;28;20473;-83
2022/10/04 07:32:02;;;;;;;10.83;3.60;;;20.70;62.00;;;;;;5011472;28;20451;-83
2022/10/04 07:34:31;;;;;;;8.47;3.60;;;20.70;61.60;;;;;;5013437;28;20458;-82
2022/10/04 07:36:59;;;;;;;4.30;3.20;;;20.70;61.40;;;;;;5001721;28;20472;-83
2022/10/04 07:39:29;;;;;;;7.23;3.53;;;20.80;61.10;;;;;;5000559;28;20441;-82
2022/10/04 07:42:00;;;;;;;8.03;3.30;;;20.80;60.70;;;;;;4994734;28;21011;-80
2022/10/04 07:44:35;;;;;;;7.93;3.17;;;20.90;60.40;;;;;;4978798;28;20477;-80
2022/10/04 07:47:09;;;;;;;5.27;2.80;;;20.90;60.10;;;;;;4980944;28;20454;-78
2022/10/04 07:49:38;;;;;;;7.67;3.07;;;21.00;59.90;;;;;;4979925;28;20472;-80
2022/10/04 07:52:35;;;;;;;9.40;3.20;;;21.00;59.90;;;;;;4983477;28;20479;-81
2022/10/04 07:55:08;;;;;;;5.67;3.30;;;21.00;59.90;;;;;;4991758;28;20444;-81
2022/10/04 07:57:39;;;;;;;9.40;2.97;;;21.10;59.60;;;;;;4998013;28;20467;-81
2022/10/04 08:00:12;;;;;;;6.07;3.10;;;21.10;59.60;;;;;;4997985;28;20440;-81
2022/10/04 08:02:45;;;;;;;33.23;3.27;;;21.10;59.40;;;;;;4997852;28;20427;-83
2022/10/04 08:05:20;;;;;;;6.03;2.93;;;21.20;59.40;;;;;;4997385;28;20455;-81
2022/10/04 08:08:00;;;;;;;4.00;2.80;;;21.20;59.40;;;;;;4993362;28;20456;-81
2022/10/04 08:10:30;;;;;;;7.90;2.67;;;21.30;59.30;;;;;;4986717;28;20480;-81
2022/10/04 08:13:01;;;;;;;7.90;2.70;;;21.40;59.70;;;;;;4995835;28;20439;-81
2022/10/04 08:15:36;;;;;;;9.63;3.17;;;21.60;59.80;;;;;;4991883;28;20428;-81
2022/10/04 08:18:11;;;;;;;7.50;2.90;;;21.90;60.00;;;;;;4994625;28;20495;-79
2022/10/04 08:20:43;;;;;;;8.33;2.60;;;22.10;59.90;;;;;;4995018;28;20462;-81
2022/10/04 08:23:25;;;;;;;10.40;2.80;;;22.30;59.70;;;;;;4991135;28;20462;-79
2022/10/04 08:25:58;;;;;;;4.20;2.63;;;22.40;59.60;;;;;;4987301;28;20441;-79
2022/10/04 08:31:22;;;;;;;7.80;2.73;;;22.80;59.40;;;;;;4993665;28;20465;-80
2022/10/04 08:33:57;;;;;;;11.53;2.60;;;23.00;59.30;;;;;;4984404;28;20515;-79
2022/10/04 08:36:32;;;;;;;5.97;2.70;;;23.10;59.00;;;;;;4995052;28;20462;-81
2022/10/04 08:39:00;;;;;;;5.00;2.80;;;23.30;59.10;;;;;;4996667;28;20441;-81
2022/10/04 08:41:44;;;;;;;7.47;3.23;;;23.50;59.10;;;;;;4994056;28;20455;-80
2022/10/04 08:44:29;;;;;;;3.70;2.40;;;23.80;59.10;;;;;;4995691;28;20453;-83
2022/10/04 08:47:24;;;;;;;6.23;2.40;;;24.00;58.90;;;;;;4982839;28;20435;-80
2022/10/04 08:50:28;;;;;;;4.50;2.50;;;24.30;59.00;;;;;;4980117;28;20452;-81
2022/10/04 08:53:16;;;;;;;4.77;2.10;;;24.50;58.90;;;;;;4993282;28;20429;-81
2022/10/04 08:56:01;;;;;;;5.07;2.30;;;24.70;58.40;;;;;;4994809;28;20429;-82
2022/10/04 08:59:05;;;;;;;6.00;2.30;;;25.00;58.40;;;;;;4990927;28;20454;-84
2022/10/04 09:02:05;;;;;;;2.33;2.10;;;25.30;58.10;;;;;;4992129;28;20451;-79
2022/10/04 09:05:09;;;;;;;5.47;2.30;;;25.50;57.70;;;;;;4979293;28;20427;-80
2022/10/04 09:08:04;;;;;;;3.40;2.60;;;25.80;57.20;;;;;;4938248;29;20434;-80
2022/10/04 09:10:47;;;;;;;4.30;2.13;;;26.10;57.10;;;;;;4995434;28;20456;-81
2022/10/04 09:13:29;;;;;;;2.70;2.07;;;26.30;56.50;;;;;;4993552;28;21010;-80
2022/10/04 09:16:03;;;;;;;3.90;2.30;;;26.60;56.10;;;;;;4993922;28;20430;-80
2022/10/04 09:18:45;;;;;;;3.63;2.40;;;26.90;55.60;;;;;;4992178;28;20540;-81
2022/10/04 09:21:20;;;;;;;2.90;2.30;;;27.10;55.30;;;;;;4990340;28;20458;-79
2022/10/04 09:23:57;;;;;;;5.53;2.70;;;27.30;54.80;;;;;;4990504;28;20420;-79
2022/10/04 09:26:32;;;;;;;2.70;2.17;;;27.60;54.30;;;;;;4994508;28;20428;-79
2022/10/04 09:29:22;;;;;;;5.20;1.87;;;27.80;54.00;;;;;;4982734;28;20484;-79
2022/10/04 09:32:31;;;;;;;3.03;2.00;;;28.10;53.70;;;;;;4989444;28;20458;-80
2022/10/04 09:35:28;;;;;;;7.73;2.60;;;28.30;53.30;;;;;;4981118;28;20424;-78
2022/10/04 09:38:23;;;;;;;3.00;2.10;;;28.60;53.00;;;;;;4980578;28;20442;-79
2022/10/04 09:41:06;;;;;;;2.70;1.97;;;28.90;52.60;;;;;;4997193;28;20552;-80
2022/10/04 09:44:16;;;;;;;4.87;2.27;;;29.10;52.00;;;;;;4998215;28;20430;-78
2022/10/04 09:46:56;;;;;;;2.93;1.90;;;29.40;51.80;;;;;;4977163;28;20428;-79
2022/10/04 09:49:40;;;;;;;2.37;1.90;;;29.60;50.90;;;;;;4993052;28;20468;-78
2022/10/04 09:52:16;;;;;;;3.53;2.20;;;29.90;50.40;;;;;;4976679;28;20501;-79
2022/10/04 09:55:08;;;;;;;4.30;2.20;;;30.10;49.80;;;;;;4987122;28;20445;-79
2022/10/04 09:57:58;;;;;;;8.93;2.60;;;30.50;49.70;;;;;;4997726;28;20453;-79
2022/10/04 10:00:26;;;;;;;7.43;2.17;;;30.60;49.00;;;;;;4985233;28;20474;-77
2022/10/04 10:03:25;;;;;;;2.70;2.40;;;30.90;48.70;;;;;;4980634;28;20453;-77
2022/10/04 10:06:40;;;;;;;3.67;2.73;;;31.10;48.40;;;;;;4996024;28;20433;-78
2022/10/04 10:09:21;;;;;;;4.43;1.80;;;31.40;48.20;;;;;;4989803;28;20448;-78
2022/10/04 10:15:14;;;;;;;6.10;2.10;;;31.70;47.20;;;;;;4995775;28;20445;-78
2022/10/04 10:17:45;;;;;;;3.90;2.00;;;31.80;47.00;;;;;;4987081;28;20453;-78
2022/10/04 10:20:35;;;;;;;2.80;2.40;;;31.90;46.70;;;;;;4985871;28;20441;-78
2022/10/04 10:23:54;;;;;;;5.40;2.33;;;32.00;46.50;;;;;;4995302;28;20449;-77
2022/10/04 10:26:50;;;;;;;2.40;2.20;;;32.20;46.40;;;;;;4967053;28;20476;-76
2022/10/04 10:29:28;;;;;;;4.40;2.20;;;32.40;46.50;;;;;;4991177;28;20472;-77
2022/10/04 10:32:10;;;;;;;3.67;1.93;;;32.50;45.50;;;;;;4994621;28;20472;-78
2022/10/04 10:35:11;;;;;;;6.90;1.87;;;32.70;45.30;;;;;;4987134;28;20485;-77
2022/10/04 10:37:44;;;;;;;5.80;2.10;;;32.90;45.20;;;;;;4976598;28;20442;-78
2022/10/04 10:40:44;;;;;;;3.20;2.23;;;33.20;44.70;;;;;;4976083;28;20442;-78
2022/10/04 10:43:30;;;;;;;6.93;2.00;;;33.40;44.60;;;;;;4979300;28;20441;-76
2022/10/04 10:46:04;;;;;;;2.40;1.83;;;33.60;44.20;;;;;;4990372;28;20967;-78
2022/10/04 10:48:44;;;;;;;2.70;1.90;;;33.80;44.00;;;;;;4995909;28;20519;-78
2022/10/04 10:51:19;;;;;;;2.33;2.13;;;34.00;43.60;;;;;;4982198;28;20496;-78
2022/10/04 10:54:24;;;;;;;5.40;1.73;;;34.20;43.30;;;;;;4994798;28;20425;-78
2022/10/04 10:57:04;;;;;;;4.40;2.03;;;34.40;43.00;;;;;;4994353;28;20472;-78
2022/10/04 11:00:00;;;;;;;2.10;2.00;;;34.60;42.50;;;;;;4990597;28;20452;-78
2022/10/04 11:02:36;;;;;;;1.93;1.80;;;34.80;42.20;;;;;;4995710;28;20457;-78
2022/10/04 11:06:00;;;;;;;2.17;1.97;;;35.10;41.70;;;;;;4995838;28;20528;-78
2022/10/04 11:08:58;;;;;;;9.30;2.23;;;36.00;41.00;;;;;;4997139;28;20446;-82
2022/10/04 11:11:40;;;;;;;4.33;2.13;;;36.20;35.30;;;;;;4957966;28;20482;-82
2022/10/04 11:14:27;;;;;;;5.80;2.07;;;35.70;35.50;;;;;;4974745;28;20458;-82
2022/10/04 11:17:11;;;;;;;7.13;1.83;;;35.50;35.80;;;;;;4986074;28;20545;-83
2022/10/04 11:20:03;;;;;;;6.70;2.03;;;35.80;35.70;;;;;;4992213;28;20481;-82
2022/10/04 11:23:07;;;;;;;7.57;2.33;;;36.00;35.80;;;;;;4991924;28;20462;-81
2022/10/04 11:25:57;;;;;;;4.03;2.40;;;36.30;35.30;;;;;;4991328;28;20453;-81
2022/10/04 11:28:28;;;;;;;2.93;2.00;;;36.60;34.90;;;;;;4993968;28;20435;-82
2022/10/04 11:31:31;;;;;;;7.60;2.07;;;37.00;34.10;;;;;;4999676;28;20511;-82
2022/10/04 11:34:10;;;;;;;2.80;1.77;;;37.10;33.80;;;;;;4995323;28;20461;-81
2022/10/04 11:37:01;;;;;;;3.90;2.27;;;37.60;33.50;;;;;;4998028;28;20442;-81
2022/10/04 11:39:37;;;;;;;3.40;2.17;;;37.70;32.80;;;;;;4998209;28;20882;-80
2022/10/04 11:42:18;;;;;;;2.10;1.70;;;37.80;32.40;;;;;;4995027;28;20488;-81
2022/10/04 11:44:58;;;;;;;4.60;1.93;;;38.00;32.40;;;;;;4998782;28;20448;-80
2022/10/04 11:47:37;;;;;;;4.53;1.80;;;38.20;32.00;;;;;;4996456;28;20444;-81
2022/10/04 11:50:38;;;;;;;2.50;1.70;;;38.30;32.00;;;;;;4989292;28;20468;-81
2022/10/04 11:53:27;;;;;;;5.30;2.07;;;38.20;31.80;;;;;;5002329;28;20498;-79
2022/10/04 11:56:09;;;;;;;3.37;2.40;;;38.30;31.70;;;;;;4996661;28;20452;-79
2022/10/04 11:58:55;;;;;;;2.70;1.83;;;38.60;31.60;;;;;;5000140;28;20432;-78
2022/10/04 12:01:45;;;;;;;3.23;1.97;;;38.60;31.20;;;;;;4992007;28;20476;-78
2022/10/04 12:04:28;;;;;;;7.07;2.13;;;38.70;31.30;;;;;;4997044;28;20459;-78
2022/10/04 12:07:05;;;;;;;1.83;1.70;;;38.80;31.10;;;;;;5003745;28;20476;-79
2022/10/04 12:09:38;;;;;;;1.97;1.77;;;38.80;31.20;;;;;;5000520;28;20463;-79
2022/10/04 12:12:39;;;;;;;8.33;1.90;;;39.00;31.10;;;;;;4987560;28;20493;-78
2022/10/04 12:15:31;;;;;;;11.40;2.40;;;38.90;31.10;;;;;;4990234;28;20451;-79
2022/10/04 12:18:25;;;;;;;14.60;2.30;;;39.30;31.20;;;;;;5000143;28;20429;-78
2022/10/04 12:21:24;;;;;;;10.33;2.47;;;38.90;30.80;;;;;;4989083;28;20988;-79
2022/10/04 12:24:03;;;;;;;10.17;2.03;;;39.00;31.00;;;;;;4994076;28;20444;-79
2022/10/04 12:26:54;;;;;;;16.57;2.20;;;39.20;30.50;;;;;;4995932;28;20456;-79
2022/10/04 12:29:30;;;;;;;11.43;2.10;;;39.20;30.50;;;;;;5004634;28;20456;-79
2022/10/04 12:31:59;;;;;;;12.60;1.93;;;39.40;30.00;;;;;;5004049;28;20991;-79
2022/10/04 12:34:30;;;;;;;26.27;2.87;;;39.50;30.00;;;;;;5003582;28;20448;-79
2022/10/04 12:37:20;;;;;;;6.10;1.90;;;39.50;30.00;;;;;;5007142;28;20428;-79
2022/10/04 12:40:12;;;;;;;11.60;2.17;;;39.50;29.90;;;;;;4998896;28;20459;-79
2022/10/04 12:42:45;;;;;;;7.80;2.50;;;39.60;29.90;;;;;;5002700;28;20444;-79
2022/10/04 12:45:27;;;;;;;6.63;1.70;;;39.60;29.80;;;;;;5002208;28;20468;-79
2022/10/04 12:48:05;;;;;;;4.77;2.13;;;39.60;29.80;;;;;;5002416;28;20459;-80
2022/10/04 12:50:49;;;;;;;9.73;2.40;;;39.50;29.80;;;;;;5001820;28;20492;-79
2022/10/04 12:53:22;;;;;;;10.10;1.70;;;39.50;29.80;;;;;;4996719;28;20460;-79
2022/10/04 12:56:21;;;;;;;3.47;1.73;;;39.70;29.80;;;;;;4984457;28;20437;-79
2022/10/04 12:59:01;;;;;;;8.23;2.73;;;39.70;29.80;;;;;;5000744;28;20953;-79
2022/10/04 13:01:32;;;;;;;4.43;1.50;;;39.50;29.70;;;;;;5001930;28;20472;-79
2022/10/04 13:04:16;;;;;;;2.20;2.10;;;39.60;29.80;;;;;;5003897;28;20440;-80
2022/10/04 13:06:52;;;;;;;5.20;1.80;;;39.50;29.80;;;;;;5003988;28;20455;-79
2022/10/04 13:09:24;;;;;;;8.67;1.70;;;39.40;30.00;;;;;;5004035;28;20436;-80
2022/10/04 13:11:59;;;;;;;4.10;1.57;;;39.30;30.00;;;;;;5003667;28;20481;-80
2022/10/04 13:14:40;;;;;;;2.77;2.03;;;39.10;30.20;;;;;;4998377;28;20469;-80
2022/10/04 13:17:13;;;;;;;7.00;2.27;;;39.00;30.30;;;;;;5005259;28;20449;-81
2022/10/04 13:20:17;;;;;;;5.30;1.90;;;38.90;30.40;;;;;;5005676;28;20533;-81
2022/10/04 13:22:47;;;;;;;6.03;1.77;;;38.90;30.50;;;;;;5007560;28;20441;-81
2022/10/04 13:25:30;;;;;;;4.33;2.00;;;38.80;30.40;;;;;;5005074;28;20497;-81
2022/10/04 13:27:59;;;;;;;1.67;1.57;;;38.60;30.70;;;;;;5002454;28;20448;-81
2022/10/04 13:30:29;;;;;;;3.23;1.90;;;38.60;31.00;;;;;;5004317;28;20477;-80
2022/10/04 13:33:02;;;;;;;1.77;1.67;;;38.50;31.50;;;;;;5005400;28;20444;-81
2022/10/04 13:35:36;;;;;;;1.80;1.50;;;38.20;31.10;;;;;;5014455;28;20424;-80
2022/10/04 13:38:19;;;;;;;2.97;1.73;;;37.40;32.10;;;;;;5023080;28;20435;-80
2022/10/04 13:40:54;;;;;;;4.30;1.63;;;36.60;33.30;;;;;;5018393;28;20483;-80
2022/10/04 13:43:34;;;;;;;4.77;2.43;;;35.80;34.60;;;;;;5003195;28;20433;-80
2022/10/04 13:46:10;;;;;;;2.83;1.77;;;34.90;35.50;;;;;;5009352;28;20436;-80